sensor_id;sensor_type;location;lat;lon;timestamp;P1;durP1;ratioP1;P2;durP2;ratioP2
42668;SDS011;29384;42.028;21.388;2023-05-06T00:00:41;15.93;;;3.83;;
42668;SDS011;29384;42.028;21.388;2023-05-06T00:03:06;8.52;;;4.57;;
42668;SDS011;29384;42.028;21.388;2023-05-06T00:05:32;5.63;;;4.00;;
42668;SDS011;29384;42.028;21.388;2023-05-06T00:07:57;5.03;;;4.00;;
42668;SDS011;29384;42.028;21.388;2023-05-06T00:10:22;9.80;;;3.90;;
42668;SDS011;29384;42.028;21.388;2023-05-06T00:15:51;6.47;;;4.10;;
42668;SDS011;29384;42.028;21.388;2023-05-06T00:18:16;4.32;;;4.03;;
42668;SDS011;29384;42.028;21.388;2023-05-06T00:20:41;3.92;;;3.65;;
42668;SDS011;29384;42.028;21.388;2023-05-06T00:23:07;4.80;;;4.35;;
42668;SDS011;29384;42.028;21.388;2023-05-06T00:25:32;6.15;;;4.57;;
42668;SDS011;29384;42.028;21.388;2023-05-06T00:31:00;18.77;;;4.50;;
42668;SDS011;29384;42.028;21.388;2023-05-06T00:33:25;3.95;;;3.75;;
42668;SDS011;29384;42.028;21.388;2023-05-06T00:35:51;4.95;;;4.55;;
42668;SDS011;29384;42.028;21.388;2023-05-06T00:38:16;4.35;;;3.95;;
42668;SDS011;29384;42.028;21.388;2023-05-06T00:40:43;4.13;;;3.92;;
42668;SDS011;29384;42.028;21.388;2023-05-06T00:46:30;3.50;;;3.28;;
42668;SDS011;29384;42.028;21.388;2023-05-06T00:48:55;6.53;;;4.05;;
42668;SDS011;29384;42.028;21.388;2023-05-06T00:51:21;10.05;;;4.75;;
42668;SDS011;29384;42.028;21.388;2023-05-06T00:53:46;4.97;;;4.68;;
42668;SDS011;29384;42.028;21.388;2023-05-06T00:56:12;5.97;;;4.20;;
42668;SDS011;29384;42.028;21.388;2023-05-06T00:58:37;4.03;;;3.83;;
42668;SDS011;29384;42.028;21.388;2023-05-06T01:01:02;4.00;;;3.70;;
42668;SDS011;29384;42.028;21.388;2023-05-06T01:03:28;4.72;;;4.13;;
42668;SDS011;29384;42.028;21.388;2023-05-06T01:05:59;28.73;;;5.00;;
42668;SDS011;29384;42.028;21.388;2023-05-06T01:08:28;7.70;;;5.13;;
42668;SDS011;29384;42.028;21.388;2023-05-06T01:11:01;5.75;;;5.25;;
42668;SDS011;29384;42.028;21.388;2023-05-06T01:13:47;6.30;;;5.70;;
42668;SDS011;29384;42.028;21.388;2023-05-06T01:16:15;5.55;;;4.97;;
42668;SDS011;29384;42.028;21.388;2023-05-06T01:18:41;7.97;;;5.05;;
42668;SDS011;29384;42.028;21.388;2023-05-06T01:21:07;6.32;;;5.22;;
42668;SDS011;29384;42.028;21.388;2023-05-06T01:23:48;5.22;;;4.50;;
42668;SDS011;29384;42.028;21.388;2023-05-06T01:26:14;5.57;;;5.07;;
42668;SDS011;29384;42.028;21.388;2023-05-06T01:28:39;16.00;;;5.00;;
42668;SDS011;29384;42.028;21.388;2023-05-06T01:31:06;5.72;;;5.07;;
42668;SDS011;29384;42.028;21.388;2023-05-06T01:33:38;5.13;;;4.72;;
42668;SDS011;29384;42.028;21.388;2023-05-06T01:36:24;4.20;;;3.90;;
42668;SDS011;29384;42.028;21.388;2023-05-06T01:39:00;6.35;;;5.57;;
42668;SDS011;29384;42.028;21.388;2023-05-06T01:41:27;4.28;;;4.03;;
42668;SDS011;29384;42.028;21.388;2023-05-06T01:43:54;4.45;;;4.25;;
42668;SDS011;29384;42.028;21.388;2023-05-06T01:46:21;7.35;;;5.00;;
42668;SDS011;29384;42.028;21.388;2023-05-06T01:48:48;4.88;;;4.55;;
42668;SDS011;29384;42.028;21.388;2023-05-06T01:51:15;10.75;;;4.28;;
42668;SDS011;29384;42.028;21.388;2023-05-06T01:53:40;5.75;;;4.75;;
42668;SDS011;29384;42.028;21.388;2023-05-06T01:56:05;6.13;;;4.43;;
42668;SDS011;29384;42.028;21.388;2023-05-06T02:01:33;4.90;;;4.43;;
42668;SDS011;29384;42.028;21.388;2023-05-06T02:03:59;4.25;;;3.95;;
42668;SDS011;29384;42.028;21.388;2023-05-06T02:06:24;6.50;;;4.72;;
42668;SDS011;29384;42.028;21.388;2023-05-06T02:08:50;8.55;;;4.90;;
42668;SDS011;29384;42.028;21.388;2023-05-06T02:11:16;5.80;;;4.75;;
42668;SDS011;29384;42.028;21.388;2023-05-06T02:13:41;5.90;;;5.38;;
42668;SDS011;29384;42.028;21.388;2023-05-06T02:16:06;4.70;;;4.35;;
42668;SDS011;29384;42.028;21.388;2023-05-06T02:18:33;5.93;;;3.97;;
42668;SDS011;29384;42.028;21.388;2023-05-06T02:20:58;7.90;;;4.28;;
42668;SDS011;29384;42.028;21.388;2023-05-06T02:23:23;4.57;;;4.28;;
42668;SDS011;29384;42.028;21.388;2023-05-06T02:25:48;3.85;;;3.58;;
42668;SDS011;29384;42.028;21.388;2023-05-06T02:31:18;4.70;;;4.28;;
42668;SDS011;29384;42.028;21.388;2023-05-06T02:33:43;4.68;;;4.28;;
42668;SDS011;29384;42.028;21.388;2023-05-06T02:36:09;6.22;;;4.15;;
42668;SDS011;29384;42.028;21.388;2023-05-06T02:38:34;3.38;;;3.17;;
42668;SDS011;29384;42.028;21.388;2023-05-06T02:41:00;3.92;;;3.67;;
42668;SDS011;29384;42.028;21.388;2023-05-06T02:46:28;3.80;;;3.22;;
42668;SDS011;29384;42.028;21.388;2023-05-06T02:48:53;16.92;;;4.40;;
42668;SDS011;29384;42.028;21.388;2023-05-06T02:51:18;3.58;;;2.75;;
42668;SDS011;29384;42.028;21.388;2023-05-06T02:53:44;4.53;;;3.40;;
42668;SDS011;29384;42.028;21.388;2023-05-06T02:56:09;12.27;;;3.38;;
42668;SDS011;29384;42.028;21.388;2023-05-06T03:01:37;2.58;;;2.38;;
42668;SDS011;29384;42.028;21.388;2023-05-06T03:04:02;4.47;;;2.92;;
42668;SDS011;29384;42.028;21.388;2023-05-06T03:06:28;3.95;;;3.65;;
42668;SDS011;29384;42.028;21.388;2023-05-06T03:08:53;3.92;;;3.65;;
42668;SDS011;29384;42.028;21.388;2023-05-06T03:11:18;4.40;;;4.13;;
42668;SDS011;29384;42.028;21.388;2023-05-06T03:16:46;5.75;;;4.47;;
42668;SDS011;29384;42.028;21.388;2023-05-06T03:19:11;4.75;;;4.25;;
42668;SDS011;29384;42.028;21.388;2023-05-06T03:21:37;4.55;;;4.25;;
42668;SDS011;29384;42.028;21.388;2023-05-06T03:24:02;3.22;;;3.03;;
42668;SDS011;29384;42.028;21.388;2023-05-06T03:26:27;4.05;;;3.75;;
42668;SDS011;29384;42.028;21.388;2023-05-06T03:31:55;12.18;;;3.55;;
42668;SDS011;29384;42.028;21.388;2023-05-06T03:34:21;3.63;;;3.13;;
42668;SDS011;29384;42.028;21.388;2023-05-06T03:36:46;3.92;;;3.53;;
42668;SDS011;29384;42.028;21.388;2023-05-06T03:39:11;4.10;;;3.80;;
42668;SDS011;29384;42.028;21.388;2023-05-06T03:41:37;6.63;;;3.85;;
42668;SDS011;29384;42.028;21.388;2023-05-06T03:47:05;4.00;;;3.50;;
42668;SDS011;29384;42.028;21.388;2023-05-06T03:49:30;2.45;;;2.35;;
42668;SDS011;29384;42.028;21.388;2023-05-06T03:51:55;4.00;;;3.22;;
42668;SDS011;29384;42.028;21.388;2023-05-06T03:54:21;2.97;;;2.28;;
42668;SDS011;29384;42.028;21.388;2023-05-06T03:56:46;2.63;;;2.53;;
42668;SDS011;29384;42.028;21.388;2023-05-06T04:02:15;3.95;;;3.13;;
42668;SDS011;29384;42.028;21.388;2023-05-06T04:04:40;3.22;;;3.03;;
42668;SDS011;29384;42.028;21.388;2023-05-06T04:07:05;2.88;;;2.67;;
42668;SDS011;29384;42.028;21.388;2023-05-06T04:09:31;3.67;;;2.85;;
42668;SDS011;29384;42.028;21.388;2023-05-06T04:11:57;3.20;;;3.00;;
42668;SDS011;29384;42.028;21.388;2023-05-06T04:17:25;3.97;;;3.20;;
42668;SDS011;29384;42.028;21.388;2023-05-06T04:19:50;2.50;;;2.40;;
42668;SDS011;29384;42.028;21.388;2023-05-06T04:22:18;3.25;;;3.05;;
42668;SDS011;29384;42.028;21.388;2023-05-06T04:24:43;22.73;;;4.45;;
42668;SDS011;29384;42.028;21.388;2023-05-06T04:27:09;4.47;;;4.15;;
42668;SDS011;29384;42.028;21.388;2023-05-06T04:29:35;6.90;;;4.90;;
42668;SDS011;29384;42.028;21.388;2023-05-06T04:32:00;5.90;;;4.03;;
42668;SDS011;29384;42.028;21.388;2023-05-06T04:34:26;4.40;;;4.00;;
42668;SDS011;29384;42.028;21.388;2023-05-06T04:36:52;4.10;;;3.47;;
42668;SDS011;29384;42.028;21.388;2023-05-06T04:39:18;8.73;;;4.40;;
42668;SDS011;29384;42.028;21.388;2023-05-06T04:41:44;7.75;;;4.03;;
42668;SDS011;29384;42.028;21.388;2023-05-06T04:47:13;4.43;;;4.03;;
42668;SDS011;29384;42.028;21.388;2023-05-06T04:49:38;4.18;;;3.88;;
42668;SDS011;29384;42.028;21.388;2023-05-06T04:52:03;8.38;;;4.05;;
42668;SDS011;29384;42.028;21.388;2023-05-06T04:54:29;3.97;;;3.67;;
42668;SDS011;29384;42.028;21.388;2023-05-06T04:56:54;4.68;;;4.30;;
42668;SDS011;29384;42.028;21.388;2023-05-06T05:02:22;3.65;;;3.40;;
42668;SDS011;29384;42.028;21.388;2023-05-06T05:04:47;3.42;;;3.22;;
42668;SDS011;29384;42.028;21.388;2023-05-06T05:07:13;5.30;;;4.03;;
42668;SDS011;29384;42.028;21.388;2023-05-06T05:09:38;3.85;;;3.60;;
42668;SDS011;29384;42.028;21.388;2023-05-06T05:12:03;6.13;;;3.85;;
42668;SDS011;29384;42.028;21.388;2023-05-06T05:17:31;8.20;;;4.85;;
42668;SDS011;29384;42.028;21.388;2023-05-06T05:19:57;5.50;;;4.22;;
42668;SDS011;29384;42.028;21.388;2023-05-06T05:22:22;4.88;;;4.40;;
42668;SDS011;29384;42.028;21.388;2023-05-06T05:24:47;7.13;;;4.88;;
42668;SDS011;29384;42.028;21.388;2023-05-06T05:27:13;6.07;;;3.65;;
42668;SDS011;29384;42.028;21.388;2023-05-06T05:32:40;4.50;;;3.92;;
42668;SDS011;29384;42.028;21.388;2023-05-06T05:35:06;4.25;;;3.80;;
42668;SDS011;29384;42.028;21.388;2023-05-06T05:37:34;7.72;;;4.32;;
42668;SDS011;29384;42.028;21.388;2023-05-06T05:39:59;7.30;;;4.50;;
42668;SDS011;29384;42.028;21.388;2023-05-06T05:42:24;6.70;;;4.65;;
42668;SDS011;29384;42.028;21.388;2023-05-06T05:47:53;8.98;;;4.50;;
42668;SDS011;29384;42.028;21.388;2023-05-06T05:50:18;4.63;;;4.18;;
42668;SDS011;29384;42.028;21.388;2023-05-06T05:52:44;5.22;;;4.60;;
42668;SDS011;29384;42.028;21.388;2023-05-06T05:55:09;3.85;;;3.55;;
42668;SDS011;29384;42.028;21.388;2023-05-06T05:57:34;9.93;;;4.60;;
42668;SDS011;29384;42.028;21.388;2023-05-06T06:03:03;3.88;;;3.38;;
42668;SDS011;29384;42.028;21.388;2023-05-06T06:05:28;3.25;;;3.05;;
42668;SDS011;29384;42.028;21.388;2023-05-06T06:07:53;7.63;;;4.50;;
42668;SDS011;29384;42.028;21.388;2023-05-06T06:10:18;12.32;;;4.15;;
42668;SDS011;29384;42.028;21.388;2023-05-06T06:12:44;4.15;;;3.88;;
42668;SDS011;29384;42.028;21.388;2023-05-06T06:15:09;5.85;;;3.47;;
42668;SDS011;29384;42.028;21.388;2023-05-06T06:17:35;9.82;;;4.10;;
42668;SDS011;29384;42.028;21.388;2023-05-06T06:20:00;4.22;;;3.30;;
42668;SDS011;29384;42.028;21.388;2023-05-06T06:22:25;4.60;;;3.80;;
42668;SDS011;29384;42.028;21.388;2023-05-06T06:24:51;2.67;;;2.55;;
42668;SDS011;29384;42.028;21.388;2023-05-06T06:27:18;6.18;;;3.17;;
42668;SDS011;29384;42.028;21.388;2023-05-06T06:32:47;3.63;;;3.28;;
42668;SDS011;29384;42.028;21.388;2023-05-06T06:35:13;7.85;;;2.83;;
42668;SDS011;29384;42.028;21.388;2023-05-06T06:37:38;2.33;;;2.22;;
42668;SDS011;29384;42.028;21.388;2023-05-06T06:40:04;5.05;;;3.03;;
42668;SDS011;29384;42.028;21.388;2023-05-06T06:42:29;5.70;;;3.28;;
42668;SDS011;29384;42.028;21.388;2023-05-06T06:47:57;3.08;;;2.85;;
42668;SDS011;29384;42.028;21.388;2023-05-06T06:50:22;2.40;;;2.20;;
42668;SDS011;29384;42.028;21.388;2023-05-06T06:52:47;7.50;;;3.70;;
42668;SDS011;29384;42.028;21.388;2023-05-06T06:55:13;3.10;;;3.00;;
42668;SDS011;29384;42.028;21.388;2023-05-06T06:57:38;4.22;;;3.10;;
42668;SDS011;29384;42.028;21.388;2023-05-06T07:03:06;7.57;;;3.70;;
42668;SDS011;29384;42.028;21.388;2023-05-06T07:05:31;5.45;;;3.17;;
42668;SDS011;29384;42.028;21.388;2023-05-06T07:07:57;2.47;;;2.30;;
42668;SDS011;29384;42.028;21.388;2023-05-06T07:10:22;3.60;;;2.58;;
42668;SDS011;29384;42.028;21.388;2023-05-06T07:12:47;13.02;;;2.55;;
42668;SDS011;29384;42.028;21.388;2023-05-06T07:18:16;3.88;;;3.22;;
42668;SDS011;29384;42.028;21.388;2023-05-06T07:20:41;2.22;;;2.10;;
42668;SDS011;29384;42.028;21.388;2023-05-06T07:23:06;2.17;;;2.08;;
42668;SDS011;29384;42.028;21.388;2023-05-06T07:25:32;2.17;;;2.00;;
42668;SDS011;29384;42.028;21.388;2023-05-06T07:27:57;4.22;;;3.10;;
42668;SDS011;29384;42.028;21.388;2023-05-06T07:33:25;4.78;;;2.70;;
42668;SDS011;29384;42.028;21.388;2023-05-06T07:35:54;2.35;;;2.25;;
42668;SDS011;29384;42.028;21.388;2023-05-06T07:38:22;2.13;;;1.92;;
42668;SDS011;29384;42.028;21.388;2023-05-06T07:40:48;1.83;;;1.83;;
42668;SDS011;29384;42.028;21.388;2023-05-06T07:43:13;2.85;;;1.95;;
42668;SDS011;29384;42.028;21.388;2023-05-06T07:45:38;2.25;;;2.15;;
42668;SDS011;29384;42.028;21.388;2023-05-06T07:48:04;2.17;;;1.85;;
42668;SDS011;29384;42.028;21.388;2023-05-06T07:50:29;2.15;;;1.90;;
42668;SDS011;29384;42.028;21.388;2023-05-06T07:52:55;1.52;;;1.52;;
42668;SDS011;29384;42.028;21.388;2023-05-06T07:55:21;1.83;;;1.73;;
42668;SDS011;29384;42.028;21.388;2023-05-06T07:57:46;3.13;;;2.83;;
42668;SDS011;29384;42.028;21.388;2023-05-06T08:03:14;1.55;;;1.45;;
42668;SDS011;29384;42.028;21.388;2023-05-06T08:05:40;4.13;;;1.80;;
42668;SDS011;29384;42.028;21.388;2023-05-06T08:08:06;1.30;;;1.30;;
42668;SDS011;29384;42.028;21.388;2023-05-06T08:10:31;1.27;;;1.27;;
42668;SDS011;29384;42.028;21.388;2023-05-06T08:12:56;2.40;;;1.50;;
42668;SDS011;29384;42.028;21.388;2023-05-06T08:18:24;6.32;;;1.52;;
42668;SDS011;29384;42.028;21.388;2023-05-06T08:20:50;1.13;;;1.13;;
42668;SDS011;29384;42.028;21.388;2023-05-06T08:23:15;1.15;;;1.15;;
42668;SDS011;29384;42.028;21.388;2023-05-06T08:25:40;5.72;;;1.42;;
42668;SDS011;29384;42.028;21.388;2023-05-06T08:28:06;2.95;;;1.38;;
42668;SDS011;29384;42.028;21.388;2023-05-06T08:33:34;2.08;;;1.98;;
42668;SDS011;29384;42.028;21.388;2023-05-06T08:35:59;3.47;;;1.55;;
42668;SDS011;29384;42.028;21.388;2023-05-06T08:38:25;1.05;;;0.95;;
42668;SDS011;29384;42.028;21.388;2023-05-06T08:40:51;0.77;;;0.77;;
42668;SDS011;29384;42.028;21.388;2023-05-06T08:43:17;1.20;;;0.93;;
42668;SDS011;29384;42.028;21.388;2023-05-06T08:48:46;3.10;;;1.50;;
42668;SDS011;29384;42.028;21.388;2023-05-06T08:51:12;1.15;;;1.05;;
42668;SDS011;29384;42.028;21.388;2023-05-06T08:53:37;1.83;;;0.90;;
42668;SDS011;29384;42.028;21.388;2023-05-06T08:56:05;0.60;;;0.60;;
42668;SDS011;29384;42.028;21.388;2023-05-06T08:58:33;1.15;;;0.80;;
42668;SDS011;29384;42.028;21.388;2023-05-06T09:04:02;3.20;;;0.88;;
42668;SDS011;29384;42.028;21.388;2023-05-06T09:06:31;1.98;;;1.17;;
42668;SDS011;29384;42.028;21.388;2023-05-06T09:08:57;2.70;;;1.35;;
42668;SDS011;29384;42.028;21.388;2023-05-06T09:11:23;0.98;;;0.98;;
42668;SDS011;29384;42.028;21.388;2023-05-06T09:13:49;1.75;;;0.90;;
42668;SDS011;29384;42.028;21.388;2023-05-06T09:19:18;1.20;;;1.20;;
42668;SDS011;29384;42.028;21.388;2023-05-06T09:21:44;3.55;;;1.58;;
42668;SDS011;29384;42.028;21.388;2023-05-06T09:24:10;32.28;;;9.23;;
42668;SDS011;29384;42.028;21.388;2023-05-06T09:26:36;11.98;;;4.55;;
42668;SDS011;29384;42.028;21.388;2023-05-06T09:29:02;8.98;;;2.85;;
42668;SDS011;29384;42.028;21.388;2023-05-06T09:31:28;2.15;;;1.75;;
42668;SDS011;29384;42.028;21.388;2023-05-06T09:33:54;4.10;;;2.05;;
42668;SDS011;29384;42.028;21.388;2023-05-06T09:36:19;1.52;;;1.42;;
42668;SDS011;29384;42.028;21.388;2023-05-06T09:38:45;12.45;;;2.03;;
42668;SDS011;29384;42.028;21.388;2023-05-06T09:41:11;1.33;;;1.23;;
42668;SDS011;29384;42.028;21.388;2023-05-06T09:43:37;3.58;;;2.90;;
42668;SDS011;29384;42.028;21.388;2023-05-06T09:49:08;2.75;;;0.82;;
42668;SDS011;29384;42.028;21.388;2023-05-06T09:51:34;1.02;;;0.90;;
42668;SDS011;29384;42.028;21.388;2023-05-06T09:54:00;0.98;;;0.98;;
42668;SDS011;29384;42.028;21.388;2023-05-06T09:56:26;0.70;;;0.70;;
42668;SDS011;29384;42.028;21.388;2023-05-06T09:58:52;3.90;;;1.58;;
42668;SDS011;29384;42.028;21.388;2023-05-06T10:04:21;1.40;;;1.05;;
42668;SDS011;29384;42.028;21.388;2023-05-06T10:06:49;6.85;;;1.52;;
42668;SDS011;29384;42.028;21.388;2023-05-06T10:09:15;1.30;;;1.05;;
42668;SDS011;29384;42.028;21.388;2023-05-06T10:11:42;3.50;;;1.20;;
42668;SDS011;29384;42.028;21.388;2023-05-06T10:14:08;4.30;;;1.17;;
42668;SDS011;29384;42.028;21.388;2023-05-06T10:19:38;0.95;;;0.95;;
42668;SDS011;29384;42.028;21.388;2023-05-06T10:24:45;2.40;;;0.90;;
42668;SDS011;29384;42.028;21.388;2023-05-06T10:27:17;0.95;;;0.95;;
42668;SDS011;29384;42.028;21.388;2023-05-06T10:29:42;3.17;;;0.90;;
42668;SDS011;29384;42.028;21.388;2023-05-06T10:32:07;3.35;;;1.67;;
42668;SDS011;29384;42.028;21.388;2023-05-06T10:34:36;1.15;;;0.82;;
42668;SDS011;29384;42.028;21.388;2023-05-06T10:37:05;0.80;;;0.80;;
42668;SDS011;29384;42.028;21.388;2023-05-06T10:39:31;2.05;;;1.13;;
42668;SDS011;29384;42.028;21.388;2023-05-06T10:41:56;3.35;;;1.38;;
42668;SDS011;29384;42.028;21.388;2023-05-06T10:50:27;3.20;;;1.13;;
42668;SDS011;29384;42.028;21.388;2023-05-06T10:52:53;6.20;;;1.25;;
42668;SDS011;29384;42.028;21.388;2023-05-06T10:57:53;0.90;;;0.90;;
42668;SDS011;29384;42.028;21.388;2023-05-06T11:00:19;0.70;;;0.70;;
42668;SDS011;29384;42.028;21.388;2023-05-06T11:02:48;0.80;;;0.80;;
42668;SDS011;29384;42.028;21.388;2023-05-06T11:05:15;7.72;;;1.10;;
42668;SDS011;29384;42.028;21.388;2023-05-06T11:07:40;1.15;;;1.05;;
42668;SDS011;29384;42.028;21.388;2023-05-06T11:10:06;6.55;;;1.75;;
42668;SDS011;29384;42.028;21.388;2023-05-06T11:12:50;0.98;;;0.98;;
42668;SDS011;29384;42.028;21.388;2023-05-06T11:18:00;0.98;;;0.98;;
42668;SDS011;29384;42.028;21.388;2023-05-06T11:20:45;0.80;;;0.80;;
42668;SDS011;29384;42.028;21.388;2023-05-06T11:23:10;1.38;;;1.27;;
42668;SDS011;29384;42.028;21.388;2023-05-06T11:25:39;1.33;;;1.23;;
42668;SDS011;29384;42.028;21.388;2023-05-06T11:28:06;0.98;;;0.98;;
42668;SDS011;29384;42.028;21.388;2023-05-06T11:30:31;3.45;;;0.85;;
42668;SDS011;29384;42.028;21.388;2023-05-06T11:32:57;3.13;;;1.25;;
42668;SDS011;29384;42.028;21.388;2023-05-06T11:35:25;6.32;;;1.63;;
42668;SDS011;29384;42.028;21.388;2023-05-06T11:37:58;1.50;;;1.37;;
42668;SDS011;29384;42.028;21.388;2023-05-06T11:40:23;3.90;;;1.15;;
42668;SDS011;29384;42.028;21.388;2023-05-06T11:42:52;0.90;;;0.90;;
42668;SDS011;29384;42.028;21.388;2023-05-06T11:45:18;1.60;;;1.17;;
42668;SDS011;29384;42.028;21.388;2023-05-06T11:47:43;1.95;;;1.20;;
42668;SDS011;29384;42.028;21.388;2023-05-06T11:50:09;2.33;;;0.82;;
42668;SDS011;29384;42.028;21.388;2023-05-06T11:52:35;0.60;;;0.60;;
42668;SDS011;29384;42.028;21.388;2023-05-06T11:55:00;0.60;;;0.60;;
42668;SDS011;29384;42.028;21.388;2023-05-06T11:57:25;0.90;;;0.90;;
42668;SDS011;29384;42.028;21.388;2023-05-06T11:59:52;0.75;;;0.75;;
42668;SDS011;29384;42.028;21.388;2023-05-06T12:02:18;0.90;;;0.60;;
42668;SDS011;29384;42.028;21.388;2023-05-06T12:04:45;0.50;;;0.50;;
42668;SDS011;29384;42.028;21.388;2023-05-06T12:07:11;0.70;;;0.70;;
42668;SDS011;29384;42.028;21.388;2023-05-06T12:09:37;6.10;;;0.80;;
42668;SDS011;29384;42.028;21.388;2023-05-06T12:12:03;1.40;;;1.05;;
42668;SDS011;29384;42.028;21.388;2023-05-06T12:14:29;6.32;;;0.90;;
42668;SDS011;29384;42.028;21.388;2023-05-06T12:19:56;0.80;;;0.80;;
42668;SDS011;29384;42.028;21.388;2023-05-06T12:22:22;0.75;;;0.75;;
42668;SDS011;29384;42.028;21.388;2023-05-06T12:24:51;0.80;;;0.80;;
42668;SDS011;29384;42.028;21.388;2023-05-06T12:27:34;0.80;;;0.80;;
42668;SDS011;29384;42.028;21.388;2023-05-06T12:29:59;1.02;;;1.02;;
42668;SDS011;29384;42.028;21.388;2023-05-06T12:32:25;1.38;;;0.63;;
42668;SDS011;29384;42.028;21.388;2023-05-06T12:34:51;1.55;;;1.13;;
42668;SDS011;29384;42.028;21.388;2023-05-06T12:37:23;0.68;;;0.68;;
42668;SDS011;29384;42.028;21.388;2023-05-06T12:39:48;1.05;;;0.98;;
42668;SDS011;29384;42.028;21.388;2023-05-06T12:42:18;3.30;;;1.25;;
42668;SDS011;29384;42.028;21.388;2023-05-06T12:44:43;0.70;;;0.70;;
42668;SDS011;29384;42.028;21.388;2023-05-06T12:50:11;1.15;;;1.13;;
42668;SDS011;29384;42.028;21.388;2023-05-06T12:52:41;0.55;;;0.55;;
42668;SDS011;29384;42.028;21.388;2023-05-06T12:55:07;0.77;;;0.77;;
42668;SDS011;29384;42.028;21.388;2023-05-06T12:57:33;1.00;;;0.73;;
42668;SDS011;29384;42.028;21.388;2023-05-06T12:59:58;2.15;;;1.45;;
42668;SDS011;29384;42.028;21.388;2023-05-06T13:05:28;0.70;;;0.70;;
42668;SDS011;29384;42.028;21.388;2023-05-06T13:07:53;2.60;;;0.77;;
42668;SDS011;29384;42.028;21.388;2023-05-06T13:10:19;0.52;;;0.52;;
42668;SDS011;29384;42.028;21.388;2023-05-06T13:12:44;1.48;;;1.10;;
42668;SDS011;29384;42.028;21.388;2023-05-06T13:15:09;2.17;;;1.35;;
42668;SDS011;29384;42.028;21.388;2023-05-06T13:17:35;1.00;;;0.82;;
42668;SDS011;29384;42.028;21.388;2023-05-06T13:20:00;2.13;;;1.05;;
42668;SDS011;29384;42.028;21.388;2023-05-06T13:22:25;1.02;;;1.02;;
42668;SDS011;29384;42.028;21.388;2023-05-06T13:24:51;1.20;;;1.20;;
42668;SDS011;29384;42.028;21.388;2023-05-06T13:27:16;0.77;;;0.52;;
42668;SDS011;29384;42.028;21.388;2023-05-06T13:29:42;1.23;;;0.77;;
42668;SDS011;29384;42.028;21.388;2023-05-06T13:35:10;0.73;;;0.73;;
42668;SDS011;29384;42.028;21.388;2023-05-06T13:37:35;1.42;;;0.93;;
42668;SDS011;29384;42.028;21.388;2023-05-06T13:40:01;0.70;;;0.70;;
42668;SDS011;29384;42.028;21.388;2023-05-06T13:42:26;2.45;;;1.15;;
42668;SDS011;29384;42.028;21.388;2023-05-06T13:44:51;0.95;;;0.95;;
42668;SDS011;29384;42.028;21.388;2023-05-06T13:50:19;1.20;;;1.13;;
42668;SDS011;29384;42.028;21.388;2023-05-06T13:52:44;1.08;;;1.08;;
42668;SDS011;29384;42.028;21.388;2023-05-06T13:55:10;0.70;;;0.70;;
42668;SDS011;29384;42.028;21.388;2023-05-06T13:57:35;1.60;;;1.25;;
42668;SDS011;29384;42.028;21.388;2023-05-06T14:00:00;1.38;;;1.20;;
42668;SDS011;29384;42.028;21.388;2023-05-06T14:05:28;1.15;;;0.70;;
42668;SDS011;29384;42.028;21.388;2023-05-06T14:07:54;1.23;;;1.10;;
42668;SDS011;29384;42.028;21.388;2023-05-06T14:10:19;0.93;;;0.90;;
42668;SDS011;29384;42.028;21.388;2023-05-06T14:12:45;0.65;;;0.65;;
42668;SDS011;29384;42.028;21.388;2023-05-06T14:15:10;1.85;;;1.30;;
42668;SDS011;29384;42.028;21.388;2023-05-06T14:20:41;1.45;;;1.25;;
42668;SDS011;29384;42.028;21.388;2023-05-06T14:23:07;1.33;;;1.25;;
42668;SDS011;29384;42.028;21.388;2023-05-06T14:25:32;0.60;;;0.60;;
42668;SDS011;29384;42.028;21.388;2023-05-06T14:27:57;0.47;;;0.47;;
42668;SDS011;29384;42.028;21.388;2023-05-06T14:30:23;0.73;;;0.73;;
42668;SDS011;29384;42.028;21.388;2023-05-06T14:35:51;2.38;;;0.88;;
42668;SDS011;29384;42.028;21.388;2023-05-06T14:38:16;1.13;;;1.13;;
42668;SDS011;29384;42.028;21.388;2023-05-06T14:40:42;4.57;;;1.27;;
42668;SDS011;29384;42.028;21.388;2023-05-06T14:43:07;1.48;;;0.80;;
42668;SDS011;29384;42.028;21.388;2023-05-06T14:45:33;1.23;;;1.05;;
42668;SDS011;29384;42.028;21.388;2023-05-06T14:51:01;1.23;;;1.15;;
42668;SDS011;29384;42.028;21.388;2023-05-06T14:53:26;0.95;;;0.95;;
42668;SDS011;29384;42.028;21.388;2023-05-06T14:55:52;1.40;;;1.05;;
42668;SDS011;29384;42.028;21.388;2023-05-06T14:58:17;2.25;;;1.00;;
42668;SDS011;29384;42.028;21.388;2023-05-06T15:00:43;0.80;;;0.80;;
42668;SDS011;29384;42.028;21.388;2023-05-06T15:03:08;0.88;;;0.88;;
42668;SDS011;29384;42.028;21.388;2023-05-06T15:05:34;4.68;;;1.30;;
42668;SDS011;29384;42.028;21.388;2023-05-06T15:08:01;3.10;;;1.02;;
42668;SDS011;29384;42.028;21.388;2023-05-06T15:10:26;0.75;;;0.75;;
42668;SDS011;29384;42.028;21.388;2023-05-06T15:12:51;5.22;;;1.50;;
42668;SDS011;29384;42.028;21.388;2023-05-06T15:15:17;1.75;;;1.52;;
42668;SDS011;29384;42.028;21.388;2023-05-06T15:20:45;1.30;;;0.98;;
42668;SDS011;29384;42.028;21.388;2023-05-06T15:23:10;15.80;;;1.27;;
42668;SDS011;29384;42.028;21.388;2023-05-06T15:25:35;3.30;;;1.05;;
42668;SDS011;29384;42.028;21.388;2023-05-06T15:28:01;0.82;;;0.82;;
42668;SDS011;29384;42.028;21.388;2023-05-06T15:30:26;0.88;;;0.88;;
42668;SDS011;29384;42.028;21.388;2023-05-06T15:35:54;2.80;;;1.00;;
42668;SDS011;29384;42.028;21.388;2023-05-06T15:38:19;1.20;;;1.10;;
42668;SDS011;29384;42.028;21.388;2023-05-06T15:40:48;0.90;;;0.90;;
42668;SDS011;29384;42.028;21.388;2023-05-06T15:43:13;1.15;;;1.05;;
42668;SDS011;29384;42.028;21.388;2023-05-06T15:45:38;1.25;;;1.15;;
42668;SDS011;29384;42.028;21.388;2023-05-06T15:51:06;0.75;;;0.75;;
42668;SDS011;29384;42.028;21.388;2023-05-06T15:53:31;2.70;;;0.75;;
42668;SDS011;29384;42.028;21.388;2023-05-06T15:55:57;1.25;;;1.15;;
42668;SDS011;29384;42.028;21.388;2023-05-06T15:58:22;2.28;;;1.27;;
42668;SDS011;29384;42.028;21.388;2023-05-06T16:00:47;0.98;;;0.98;;
42668;SDS011;29384;42.028;21.388;2023-05-06T16:06:15;0.77;;;0.77;;
42668;SDS011;29384;42.028;21.388;2023-05-06T16:08:41;1.25;;;1.25;;
42668;SDS011;29384;42.028;21.388;2023-05-06T16:11:06;1.10;;;1.10;;
42668;SDS011;29384;42.028;21.388;2023-05-06T16:13:33;0.90;;;0.90;;
42668;SDS011;29384;42.028;21.388;2023-05-06T16:15:59;2.50;;;1.13;;
42668;SDS011;29384;42.028;21.388;2023-05-06T16:21:27;7.40;;;1.17;;
42668;SDS011;29384;42.028;21.388;2023-05-06T16:23:53;1.23;;;1.00;;
42668;SDS011;29384;42.028;21.388;2023-05-06T16:26:18;1.70;;;0.75;;
42668;SDS011;29384;42.028;21.388;2023-05-06T16:28:44;2.92;;;1.25;;
42668;SDS011;29384;42.028;21.388;2023-05-06T16:31:10;1.42;;;1.42;;
42668;SDS011;29384;42.028;21.388;2023-05-06T16:36:38;5.68;;;1.10;;
42668;SDS011;29384;42.028;21.388;2023-05-06T16:39:05;2.33;;;1.75;;
42668;SDS011;29384;42.028;21.388;2023-05-06T16:41:31;2.60;;;1.63;;
42668;SDS011;29384;42.028;21.388;2023-05-06T16:43:56;4.68;;;1.60;;
42668;SDS011;29384;42.028;21.388;2023-05-06T16:46:21;1.50;;;0.88;;
42668;SDS011;29384;42.028;21.388;2023-05-06T16:48:48;5.13;;;1.15;;
42668;SDS011;29384;42.028;21.388;2023-05-06T16:51:13;1.10;;;1.10;;
42668;SDS011;29384;42.028;21.388;2023-05-06T16:53:40;1.05;;;1.05;;
42668;SDS011;29384;42.028;21.388;2023-05-06T16:56:05;20.05;;;1.70;;
42668;SDS011;29384;42.028;21.388;2023-05-06T16:58:31;0.80;;;0.80;;
42668;SDS011;29384;42.028;21.388;2023-05-06T17:00:56;1.00;;;0.88;;
42668;SDS011;29384;42.028;21.388;2023-05-06T17:06:24;7.65;;;1.08;;